Sun, 01 Aug 2021 00:46:15 UTC

Information for RPM dash-0.5.6-2.fc14.x86_64.rpm

ID2029507
Namedash
Version0.5.6
Release2.fc14
Epoch
Archx86_64
SummarySmall and fast POSIX-compliant shell
DescriptionDASH is a POSIX-compliant implementation of /bin/sh that aims to be as small as possible. It does this without sacrificing speed where possible. In fact, it is significantly faster than bash (the GNU Bourne-Again SHell) for most tasks.
Build Time2010-06-21 08:38:30 GMT
Size75,304
3b9cf7da934dc31116ed8cf3c71c5602
LicenseBSD
Buildrootdist-f14-build-813130-118502
Provides
dash = 0.5.6-2.fc14
dash(x86-64) = 0.5.6-2.fc14
Obsoletes No Obsoletes
Conflicts No Conflicts
Requires
libc.so.6()(64bit)
libc.so.6(GLIBC_2.11)(64bit)
libc.so.6(GLIBC_2.2.5)(64bit)
libc.so.6(GLIBC_2.3)(64bit)
libc.so.6(GLIBC_2.3.4)(64bit)
libc.so.6(GLIBC_2.4)(64bit)
rpmlib(CompressedFileNames) <= 3.0.4-1
rpmlib(FileDigests) <= 4.6.0-1
rpmlib(PayloadFilesHavePrefix) <= 4.0-1
rpmlib(PayloadIsXz) <= 5.2-1
rtld(GNU_HASH)
Recommends No Recommends
Suggests No Suggests
Supplements No Supplements
Enhances No Enhances
Files
1 through 2 of 2
Name ascending sort Size
/bin/dash106,920
/usr/share/man/man1/dash.1.gz21,106
Component of
Page:
1 through 50 of 27703 >>>
Buildroot descending sort Created State
dist-f14-build-1089167-166131 2011-06-26 15:37:01 expired
dist-f14-build-1088655-165939 2011-06-25 02:22:03 expired
dist-f14-build-1088568-165928 2011-06-24 19:59:14 expired
dist-f14-build-1087937-165766 2011-06-24 05:20:25 expired
dist-f14-build-1087630-165713 2011-06-23 17:50:01 expired
dist-f14-build-1087451-165653 2011-06-23 14:15:36 expired
dist-f14-build-1086967-165569 2011-06-22 20:52:50 expired
dist-f14-build-1086698-165494 2011-06-22 13:04:26 expired
dist-f14-build-1086191-165358 2011-06-21 20:27:34 expired
dist-f14-build-1086174-165358 2011-06-21 20:14:04 expired
dist-f14-build-1086109-165341 2011-06-21 17:55:42 expired
dist-f14-build-1086005-165320 2011-06-21 15:57:02 expired
dist-f14-build-1085959-165293 2011-06-21 15:15:08 expired
dist-f14-build-1085690-165247 2011-06-21 11:16:27 expired
dist-f14-build-1085561-165247 2011-06-21 09:40:58 expired
dist-f14-build-1085448-165247 2011-06-21 08:56:58 expired
dist-f14-build-1085327-165194 2011-06-21 05:46:49 expired
dist-f14-build-1085314-165194 2011-06-21 05:21:35 expired
dist-f14-build-1084508-165066 2011-06-20 18:08:08 expired
dist-f14-build-1083846-164966 2011-06-20 12:16:24 expired
dist-f14-build-1083756-164966 2011-06-20 10:50:28 expired
dist-f14-build-1083738-164966 2011-06-20 10:01:13 expired
dist-f14-build-1083688-164966 2011-06-20 09:00:05 expired
dist-f14-build-1083670-164966 2011-06-20 08:32:00 expired
dist-f14-build-1082988-164823 2011-06-18 19:38:28 expired
dist-f14-build-1082973-164823 2011-06-18 17:59:25 expired
dist-f14-build-1082915-164802 2011-06-18 12:06:37 expired
dist-f14-build-1082888-164802 2011-06-18 11:14:29 expired
dist-f14-build-1082880-164791 2011-06-18 10:15:11 expired
dist-f14-build-1082857-164738 2011-06-18 09:20:27 expired
dist-f14-build-1082310-164651 2011-06-17 16:49:45 expired
dist-f14-kde-1082197-164638 2011-06-17 15:51:15 expired
dist-f14-kde-1082143-164611 2011-06-17 15:25:47 expired
dist-f14-build-1081197-164446 2011-06-17 00:10:51 expired
dist-f14-kde-1081128-164454 2011-06-16 20:29:27 expired
dist-f14-build-1081081-164446 2011-06-16 19:28:49 expired
dist-f14-build-1080527-164305 2011-06-15 23:54:16 expired
dist-f14-build-1080200-164225 2011-06-15 13:04:19 expired
dist-f14-build-1079866-164145 2011-06-14 18:16:00 expired
dist-f14-kde-1079704-164137 2011-06-14 14:31:13 expired
dist-f14-build-1079575-164126 2011-06-14 11:50:08 expired
dist-f14-build-1079471-164126 2011-06-14 09:01:28 expired
dist-f14-build-1079432-164126 2011-06-14 07:58:38 expired
dist-f14-build-1079265-164105 2011-06-13 22:09:52 expired
dist-f14-build-1079103-164084 2011-06-13 17:29:38 expired
dist-f14-build-1079014-164060 2011-06-13 15:46:14 expired
dist-f14-build-1079005-164060 2011-06-13 15:40:28 expired
dist-f14-build-1078913-164060 2011-06-13 14:13:19 expired
dist-f14-build-1078798-163887 2011-06-13 00:17:45 expired
dist-f14-build-1078741-163887 2011-06-12 21:58:00 expired